createdAt,value
2022-12-03T03:38:07.691Z,75.42
2022-12-03T03:40:34.735Z,70.10
2022-12-03T03:43:01.702Z,69.67
2022-12-03T03:45:29.585Z,69.83
2022-12-03T03:47:57.912Z,70.19
2022-12-03T03:50:25.036Z,69.43
2022-12-03T03:52:51.960Z,67.71
2022-12-03T03:55:20.457Z,67.58
2022-12-03T03:57:47.629Z,68.05
2022-12-03T04:00:17.003Z,68.74
2022-12-03T04:02:43.996Z,69.70
2022-12-03T04:05:21.492Z,69.18
2022-12-03T04:07:48.599Z,67.27
2022-12-03T04:10:34.400Z,67.32
2022-12-03T04:13:01.555Z,67.87
2022-12-03T04:15:28.812Z,68.68
2022-12-03T04:18:14.526Z,69.74
2022-12-03T04:20:41.666Z,68.98
2022-12-03T04:23:08.636Z,67.87
2022-12-03T04:25:54.464Z,67.51
2022-12-03T04:28:40.188Z,68.17
2022-12-03T04:31:25.632Z,69.03
2022-12-03T04:34:11.458Z,70.33
2022-12-03T04:36:38.730Z,69.14
2022-12-03T04:39:05.861Z,67.94
2022-12-03T04:41:32.772Z,67.45
2022-12-03T04:44:18.477Z,67.64
2022-12-03T04:46:45.490Z,68.56
2022-12-03T04:49:13.018Z,69.69
2022-12-03T04:51:39.902Z,69.37
2022-12-03T04:54:06.903Z,67.86
2022-12-03T04:56:33.875Z,67.65
2022-12-03T04:59:00.846Z,68.21
2022-12-03T05:01:27.909Z,68.48
2022-12-03T05:03:54.906Z,68.99
2022-12-03T05:06:22.028Z,68.87
2022-12-03T05:08:49.100Z,67.66
2022-12-03T05:11:16.049Z,67.30
2022-12-03T05:13:43.286Z,67.69
2022-12-03T05:16:10.465Z,68.41
2022-12-03T05:18:37.491Z,69.49
2022-12-03T05:21:04.495Z,69.02
2022-12-03T05:23:32.321Z,67.65
2022-12-03T05:25:59.257Z,67.61
2022-12-03T05:28:26.275Z,67.52
2022-12-03T05:30:53.293Z,68.20
2022-12-03T05:33:21.167Z,69.54
2022-12-03T05:35:48.111Z,68.83
2022-12-03T05:38:15.125Z,67.41
2022-12-03T05:40:42.171Z,67.14
2022-12-03T05:43:09.071Z,66.92
2022-12-03T05:45:37.703Z,67.91
2022-12-03T05:48:05.824Z,68.89
2022-12-03T05:50:33.882Z,68.61
2022-12-03T05:53:14.028Z,66.75
2022-12-03T05:55:41.060Z,66.58
2022-12-03T05:58:08.118Z,66.79
2022-12-03T06:00:42.374Z,67.60
2022-12-03T06:03:09.920Z,68.42
2022-12-03T06:05:37.088Z,69.10
2022-12-03T06:08:04.121Z,68.29
2022-12-03T06:10:31.338Z,66.95
2022-12-03T06:12:58.328Z,66.02
2022-12-03T06:15:25.271Z,66.78
2022-12-03T06:17:52.584Z,67.15
2022-12-03T06:20:20.181Z,68.36
2022-12-03T06:22:47.707Z,69.17
2022-12-03T06:25:15.211Z,68.70
2022-12-03T06:27:42.255Z,67.05
2022-12-03T06:30:11.677Z,66.62
2022-12-03T06:32:38.943Z,66.95
2022-12-03T06:35:06.066Z,67.81
2022-12-03T06:37:33.023Z,68.85
2022-12-03T06:40:03.127Z,68.65
2022-12-03T06:42:30.494Z,67.31
2022-12-03T06:44:57.526Z,66.78
2022-12-03T06:47:24.587Z,67.27
2022-12-03T06:49:51.589Z,67.76
2022-12-03T06:52:18.580Z,68.65
2022-12-03T06:54:45.641Z,68.43
2022-12-03T06:57:12.706Z,66.92
2022-12-03T06:59:39.620Z,66.08
2022-12-03T07:02:06.867Z,66.14
2022-12-03T07:04:33.898Z,66.76
2022-12-03T07:07:00.841Z,67.50
2022-12-03T07:09:27.897Z,68.39
2022-12-03T07:11:54.850Z,67.57
2022-12-03T07:14:21.876Z,65.71
2022-12-03T07:16:48.929Z,65.34
2022-12-03T07:19:15.915Z,65.85
2022-12-03T07:21:42.914Z,67.05
2022-12-03T07:24:09.922Z,67.59
2022-12-03T07:26:36.929Z,68.61
2022-12-03T07:29:03.962Z,67.87
2022-12-03T07:31:30.989Z,66.06
2022-12-03T07:33:58.067Z,65.36
2022-12-03T07:36:25.150Z,66.25
2022-12-03T07:38:52.553Z,66.63
2022-12-03T07:41:19.592Z,67.12
2022-12-03T07:43:46.550Z,68.08
2022-12-03T07:46:13.505Z,67.26
2022-12-03T07:48:40.510Z,65.48
2022-12-03T07:51:08.819Z,64.99
2022-12-03T07:53:37.489Z,65.35
2022-12-03T07:56:05.048Z,65.61
2022-12-03T07:58:32.062Z,66.29
2022-12-03T08:00:59.185Z,66.89
2022-12-03T08:03:26.130Z,66.39
2022-12-03T08:05:53.096Z,64.61
2022-12-03T08:08:20.031Z,64.66
2022-12-03T08:10:47.043Z,65.18
2022-12-03T08:13:15.383Z,66.30
2022-12-03T08:15:42.534Z,66.78
2022-12-03T08:18:20.441Z,68.33
2022-12-03T08:20:48.955Z,67.38
2022-12-03T08:23:21.844Z,65.96
2022-12-03T08:25:51.425Z,65.59
2022-12-03T08:28:26.691Z,65.99
2022-12-03T08:31:21.074Z,66.58
2022-12-03T08:33:49.331Z,67.52
2022-12-03T08:36:20.534Z,67.99
2022-12-03T08:38:57.825Z,67.33
2022-12-03T08:41:43.612Z,65.63
2022-12-03T08:44:30.694Z,65.28
2022-12-03T08:47:02.338Z,66.02
2022-12-03T08:49:29.321Z,67.24
2022-12-03T08:51:57.524Z,67.62
2022-12-03T08:54:24.543Z,68.78
2022-12-03T08:56:51.473Z,68.22
2022-12-03T08:59:31.185Z,66.49
2022-12-03T09:01:58.627Z,65.60
2022-12-03T09:04:45.459Z,66.13
2022-12-03T11:27:19.386Z,84.05
2022-12-03T11:29:47.471Z,78.93
2022-12-03T11:32:42.622Z,73.18
2022-12-03T11:35:13.401Z,70.00
2022-12-03T11:37:40.347Z,70.03
2022-12-03T11:40:16.570Z,70.30
2022-12-03T11:42:43.627Z,70.22
2022-12-03T11:45:10.541Z,69.55
2022-12-03T11:47:42.154Z,68.50
2022-12-03T11:50:40.425Z,67.51
2022-12-03T11:53:10.567Z,68.35
2022-12-03T11:55:38.789Z,69.09
2022-12-03T11:58:26.429Z,69.74
2022-12-03T12:00:55.326Z,68.52
2022-12-03T12:03:27.146Z,67.32
2022-12-03T12:06:10.866Z,66.31
2022-12-03T12:09:03.857Z,67.07
2022-12-03T12:11:32.373Z,67.98
2022-12-03T12:13:59.888Z,68.90
2022-12-03T12:16:52.779Z,68.31
2022-12-03T12:19:40.235Z,66.62
2022-12-03T12:22:25.601Z,66.77
2022-12-03T12:24:53.550Z,67.82
2022-12-03T12:27:31.637Z,68.58
2022-12-03T12:30:01.227Z,69.55
2022-12-03T12:32:29.990Z,68.44
2022-12-03T12:35:19.974Z,66.76
2022-12-03T12:37:56.798Z,65.90
2022-12-03T12:40:27.924Z,66.94
2022-12-03T12:42:59.482Z,67.97
2022-12-03T12:45:28.172Z,69.27
2022-12-03T12:48:04.240Z,69.04
2022-12-03T12:50:31.705Z,67.41
2022-12-03T12:53:23.914Z,66.99
2022-12-03T12:56:21.217Z,68.47
2022-12-03T12:58:48.157Z,69.53
2022-12-03T13:01:20.842Z,69.82
2022-12-03T13:03:50.273Z,69.43
2022-12-03T13:06:17.325Z,67.68
2022-12-03T13:08:48.952Z,67.52
2022-12-03T13:11:25.383Z,67.79
2022-12-03T13:13:52.288Z,68.32
2022-12-03T13:16:26.658Z,69.01
2022-12-03T13:18:54.799Z,68.74
2022-12-03T13:21:46.260Z,67.35
2022-12-03T13:24:34.701Z,67.56
2022-12-03T13:27:20.772Z,68.67
2022-12-03T13:30:02.329Z,69.88
2022-12-03T13:32:38.799Z,70.84
2022-12-03T13:35:24.182Z,69.75
2022-12-03T13:37:51.149Z,68.07
2022-12-03T13:40:25.671Z,68.48
2022-12-03T13:42:53.256Z,69.52
2022-12-03T13:45:20.261Z,70.06
2022-12-03T13:47:53.451Z,70.37
2022-12-03T13:50:36.383Z,70.25
2022-12-03T13:53:20.261Z,68.70
2022-12-03T13:55:49.370Z,68.21
2022-12-03T13:58:16.359Z,68.95
2022-12-03T14:00:43.430Z,69.33
2022-12-03T14:03:10.427Z,70.19
2022-12-03T14:05:37.328Z,70.10
2022-12-03T14:08:06.122Z,68.43
2022-12-03T14:10:33.351Z,68.06
2022-12-03T14:13:00.356Z,68.22
2022-12-03T14:15:27.422Z,69.08
2022-12-03T14:17:54.463Z,69.81
2022-12-03T14:20:21.616Z,69.58
2022-12-03T14:22:48.635Z,68.61
2022-12-03T14:25:15.706Z,68.28
2022-12-03T14:27:42.640Z,69.20
2022-12-03T14:30:10.112Z,69.66
2022-12-03T14:32:37.097Z,70.89
2022-12-03T14:35:09.699Z,69.85
2022-12-03T14:37:37.220Z,67.91
2022-12-03T14:40:07.111Z,67.90
2022-12-03T14:42:34.074Z,67.89
2022-12-03T14:45:01.124Z,68.39
2022-12-03T14:47:28.063Z,69.10
2022-12-03T14:49:55.090Z,69.05
2022-12-03T14:52:22.186Z,67.50
2022-12-03T14:54:49.515Z,67.36
2022-12-03T14:57:16.645Z,67.92
2022-12-03T14:59:43.972Z,68.43
2022-12-03T15:02:11.134Z,69.70
2022-12-03T15:04:39.033Z,69.41
2022-12-03T15:07:06.148Z,67.93
2022-12-03T15:09:33.191Z,68.15
2022-12-03T15:12:00.289Z,68.59
2022-12-03T15:14:27.293Z,69.39
2022-12-03T15:16:54.713Z,70.50
2022-12-03T15:19:21.653Z,69.90
2022-12-03T15:21:48.615Z,69.09
2022-12-03T15:24:15.602Z,68.95
2022-12-03T15:26:42.527Z,69.47
2022-12-03T15:29:09.485Z,69.95
2022-12-03T15:31:36.585Z,71.32
2022-12-03T15:34:04.100Z,70.02
2022-12-03T15:36:31.120Z,68.78
2022-12-03T15:38:58.105Z,68.22
2022-12-03T15:41:29.135Z,68.81
2022-12-03T15:44:01.539Z,68.90
2022-12-03T15:46:28.782Z,69.50
2022-12-03T15:48:55.837Z,69.44
2022-12-03T15:51:23.248Z,67.74
2022-12-03T15:53:50.266Z,68.03
2022-12-03T15:56:17.254Z,68.88
2022-12-03T15:58:44.197Z,69.68
2022-12-03T16:01:13.577Z,70.62
2022-12-03T16:03:41.410Z,69.64
2022-12-03T16:06:08.923Z,68.23
2022-12-03T16:08:35.944Z,67.80
2022-12-03T16:11:04.043Z,68.33
2022-12-03T16:13:31.477Z,69.80
2022-12-03T16:15:58.452Z,70.34
2022-12-03T16:18:25.495Z,69.75
2022-12-03T16:20:52.823Z,68.13
2022-12-03T16:23:19.744Z,68.08
2022-12-03T16:25:46.780Z,68.50
2022-12-03T16:28:13.666Z,68.79
2022-12-03T16:30:40.781Z,69.92
2022-12-03T16:33:07.875Z,69.74
2022-12-03T16:35:34.782Z,68.44
2022-12-03T16:38:01.685Z,67.66
2022-12-03T16:40:28.708Z,68.12
2022-12-03T16:42:56.681Z,69.03
2022-12-03T16:45:29.601Z,69.90
2022-12-03T16:47:56.605Z,69.63
2022-12-03T16:50:29.436Z,67.67
2022-12-03T16:52:57.691Z,68.11
2022-12-03T16:55:24.745Z,68.65
2022-12-03T16:57:51.657Z,69.41
2022-12-03T17:00:21.785Z,70.43
2022-12-03T17:02:48.924Z,69.81
2022-12-03T17:05:16.071Z,68.20
2022-12-03T18:31:57.067Z,85.59
2022-12-03T18:34:23.369Z,80.12
2022-12-03T18:36:49.894Z,75.56
2022-12-03T18:39:26.907Z,73.34
2022-12-03T18:41:53.277Z,72.89
2022-12-03T18:44:19.556Z,72.62
2022-12-03T18:46:53.486Z,73.10
2022-12-03T18:49:20.588Z,71.95
2022-12-03T18:51:48.320Z,70.25
2022-12-03T18:54:15.037Z,69.62
2022-12-03T18:56:41.431Z,70.76
2022-12-03T18:59:08.072Z,71.17
2022-12-03T19:01:34.621Z,71.79
2022-12-03T19:04:01.188Z,70.58
2022-12-03T19:06:30.513Z,68.77
2022-12-03T19:08:56.952Z,68.74
2022-12-03T19:11:23.335Z,68.77
2022-12-03T19:13:50.718Z,69.17
2022-12-03T19:16:17.111Z,70.08
2022-12-03T19:18:43.715Z,69.52
2022-12-03T19:21:11.924Z,68.15
2022-12-03T19:23:38.619Z,67.95
2022-12-03T19:26:07.197Z,68.76
2022-12-03T19:28:33.503Z,69.11
2022-12-03T19:31:11.071Z,69.66
2022-12-03T19:33:38.233Z,69.08
2022-12-03T19:36:06.275Z,68.08
2022-12-03T19:38:32.981Z,67.73
2022-12-03T19:41:05.869Z,68.65
2022-12-03T19:43:34.044Z,69.36
2022-12-03T19:46:05.439Z,70.28
2022-12-03T19:48:32.653Z,70.10
2022-12-03T19:51:19.826Z,68.81
2022-12-03T19:53:46.804Z,68.78
2022-12-03T19:56:15.885Z,69.13
2022-12-03T19:58:44.409Z,70.00
2022-12-03T20:01:13.143Z,70.70
2022-12-03T20:03:44.409Z,70.19
2022-12-03T20:06:11.693Z,68.47
2022-12-03T20:08:38.869Z,68.57
2022-12-03T20:11:13.397Z,69.82
2022-12-03T20:13:41.778Z,70.93
2022-12-03T20:16:11.548Z,71.80
2022-12-03T20:18:40.299Z,70.89
2022-12-03T20:21:07.332Z,68.99
2022-12-03T20:23:33.696Z,69.21
2022-12-03T20:26:00.033Z,69.73
2022-12-03T20:28:27.019Z,70.47
2022-12-03T20:31:00.606Z,71.12
2022-12-03T20:33:26.988Z,70.14
2022-12-03T20:35:56.534Z,68.51
2022-12-03T20:38:25.546Z,68.27
2022-12-03T20:40:51.834Z,68.51
2022-12-03T20:43:18.387Z,69.25
2022-12-03T20:45:44.804Z,70.19
2022-12-03T20:48:11.232Z,70.28
2022-12-03T20:50:38.493Z,68.95
2022-12-03T20:53:23.787Z,68.79
2022-12-03T20:55:55.698Z,69.44
2022-12-03T20:58:21.843Z,71.03
2022-12-03T21:00:48.182Z,71.75
2022-12-03T21:03:14.496Z,71.77
2022-12-03T21:05:41.961Z,69.86
2022-12-03T21:08:08.334Z,69.12
2022-12-03T21:10:43.995Z,70.21
2022-12-03T21:13:14.302Z,70.99
2022-12-03T21:15:41.136Z,71.66
2022-12-03T21:18:08.594Z,70.72
2022-12-03T21:20:45.888Z,69.09
2022-12-03T21:23:12.730Z,68.70
2022-12-03T21:25:39.315Z,69.67
2022-12-03T21:28:06.589Z,70.16
2022-12-03T21:30:32.963Z,71.76
2022-12-03T21:32:59.504Z,71.31
2022-12-03T21:35:25.772Z,69.93
2022-12-03T21:37:52.126Z,69.71
2022-12-03T21:40:18.888Z,70.35
2022-12-03T21:42:45.690Z,70.90
2022-12-03T21:45:12.151Z,71.54
2022-12-03T21:47:38.439Z,71.51
2022-12-03T21:50:06.166Z,69.75
2022-12-03T21:52:34.314Z,68.88
2022-12-03T21:55:00.633Z,69.15
2022-12-03T21:57:26.903Z,69.76
2022-12-03T21:59:54.969Z,70.13
2022-12-03T22:02:22.255Z,69.82
2022-12-03T22:04:49.653Z,68.30
2022-12-03T22:07:16.093Z,68.31
2022-12-03T22:09:42.319Z,68.71
2022-12-03T22:12:08.583Z,69.27
2022-12-03T22:14:35.072Z,70.34
2022-12-03T22:17:01.405Z,70.13
2022-12-03T22:19:27.826Z,68.58
2022-12-03T22:21:54.109Z,68.21
2022-12-03T22:24:20.470Z,69.15
2022-12-03T22:26:46.994Z,70.41
2022-12-03T22:29:13.347Z,71.33
2022-12-03T22:31:39.892Z,71.14
2022-12-03T22:34:06.391Z,69.59
2022-12-03T22:36:32.822Z,69.43
2022-12-03T22:38:59.092Z,69.43
2022-12-03T22:41:25.335Z,69.91
2022-12-03T22:43:51.579Z,71.28
2022-12-03T22:46:17.978Z,70.81
2022-12-03T22:48:46.578Z,68.52
2022-12-03T22:51:14.709Z,68.20
2022-12-03T22:53:40.902Z,69.35
2022-12-03T22:56:07.414Z,69.93
2022-12-03T22:58:33.865Z,70.63
2022-12-03T23:01:03.239Z,70.09
2022-12-03T23:03:30.085Z,68.26
2022-12-03T23:05:56.606Z,67.95
2022-12-03T23:08:22.993Z,68.53
2022-12-03T23:10:50.588Z,69.50
2022-12-03T23:13:17.016Z,70.42
2022-12-03T23:15:51.444Z,70.45
2022-12-03T23:18:18.394Z,69.15
2022-12-03T23:20:46.393Z,69.37
2022-12-03T23:23:12.782Z,69.61
2022-12-03T23:25:39.173Z,70.18
2022-12-03T23:28:05.537Z,70.47
2022-12-03T23:30:37.617Z,70.37
2022-12-03T23:33:04.707Z,68.34
2022-12-03T23:35:31.883Z,67.94
2022-12-03T23:37:58.352Z,68.95
2022-12-03T23:40:24.668Z,69.79
2022-12-03T23:42:50.913Z,70.82
2022-12-03T23:45:17.318Z,70.61
2022-12-03T23:47:44.246Z,68.86
2022-12-03T23:50:10.997Z,68.36
2022-12-03T23:52:37.360Z,68.50
2022-12-03T23:55:03.885Z,69.32
2022-12-03T23:57:30.193Z,70.31
2022-12-03T23:59:56.773Z,70.36
